createdAt,value
2022-11-01T00:01:38.062Z,60.90
2022-11-01T00:06:42.385Z,60.70
2022-11-01T00:11:45.389Z,60.70
2022-11-01T00:16:48.684Z,60.50
2022-11-01T00:21:53.046Z,60.40
2022-11-01T00:26:56.004Z,60.70
2022-11-01T00:31:58.925Z,60.90
2022-11-01T00:37:03.291Z,61.00
2022-11-01T00:42:07.469Z,61.00
2022-11-01T00:47:10.411Z,61.00
2022-11-01T00:52:14.692Z,60.90
2022-11-01T00:57:17.954Z,61.10
2022-11-01T01:02:20.988Z,61.00
2022-11-01T01:07:25.386Z,61.00
2022-11-01T01:12:28.382Z,61.20
2022-11-01T01:17:33.805Z,61.00
2022-11-01T01:22:38.517Z,61.10
2022-11-01T01:27:41.706Z,61.10
2022-11-01T01:32:45.002Z,61.10
2022-11-01T01:37:49.294Z,61.20
2022-11-01T01:42:52.226Z,61.20
2022-11-01T01:47:58.865Z,61.10
2022-11-01T01:53:07.575Z,61.30
2022-11-01T01:58:13.100Z,61.50
2022-11-01T02:03:16.781Z,61.50
2022-11-01T02:08:28.244Z,61.60
2022-11-01T02:13:31.669Z,61.80
2022-11-01T02:18:41.422Z,61.50
2022-11-01T02:24:12.433Z,61.70
2022-11-01T02:29:32.211Z,61.90
2022-11-01T02:34:44.832Z,61.80
2022-11-01T02:39:51.181Z,61.80
2022-11-01T02:44:58.821Z,61.80
2022-11-01T02:50:07.127Z,61.80
2022-11-01T02:55:29.830Z,61.90
2022-11-01T03:00:35.671Z,61.90
2022-11-01T03:05:46.683Z,61.70
2022-11-01T03:10:56.667Z,61.90
2022-11-01T03:16:13.263Z,61.90
2022-11-01T03:21:22.859Z,62.30
2022-11-01T03:26:28.699Z,62.30
2022-11-01T03:31:34.287Z,62.20
2022-11-01T03:36:42.239Z,62.60
2022-11-01T03:41:48.965Z,63.10
2022-11-01T03:46:52.258Z,63.40
2022-11-01T03:51:57.194Z,64.00
2022-11-01T03:57:00.246Z,64.40
2022-11-01T04:02:03.420Z,64.40
2022-11-01T04:07:07.985Z,64.60
2022-11-01T04:12:10.976Z,64.60
2022-11-01T04:17:33.650Z,64.30
2022-11-01T04:22:39.078Z,64.00
2022-11-01T04:27:42.020Z,63.90
2022-11-01T04:32:45.146Z,63.50
2022-11-01T04:37:49.720Z,63.50
2022-11-01T04:42:53.418Z,63.50
2022-11-01T04:48:04.397Z,63.40
2022-11-01T04:53:09.152Z,63.50
2022-11-01T04:58:12.454Z,63.20
2022-11-01T05:03:15.451Z,63.20
2022-11-01T05:08:21.189Z,63.30
2022-11-01T05:13:25.262Z,63.40
2022-11-01T05:18:34.773Z,63.40
2022-11-01T05:23:39.406Z,63.40
2022-11-01T05:28:42.397Z,63.70
2022-11-01T05:33:45.621Z,63.50
2022-11-01T05:38:49.994Z,63.70
2022-11-01T05:43:53.195Z,64.50
2022-11-01T05:48:56.384Z,63.70
2022-11-01T05:54:00.738Z,63.80
2022-11-01T05:59:03.990Z,63.80
2022-11-01T06:04:07.100Z,63.90
2022-11-01T06:09:11.618Z,63.90
2022-11-01T06:14:14.801Z,64.00
2022-11-01T06:19:17.765Z,63.90
2022-11-01T06:24:22.075Z,64.00
2022-11-01T06:29:25.300Z,64.10
2022-11-01T06:34:28.451Z,64.10
2022-11-01T06:39:33.671Z,64.10
2022-11-01T06:44:36.987Z,64.20
2022-11-01T06:49:40.555Z,64.20
2022-11-01T06:54:45.565Z,64.30
2022-11-01T06:59:49.220Z,64.40
2022-11-01T07:04:52.720Z,64.20
2022-11-01T07:09:57.451Z,64.30
2022-11-01T07:15:00.873Z,64.50
2022-11-01T07:20:06.567Z,64.50
2022-11-01T07:25:14.373Z,64.50
2022-11-01T07:30:18.116Z,64.70
2022-11-01T07:35:21.416Z,64.50
2022-11-01T07:40:28.030Z,64.60
2022-11-01T07:45:33.503Z,64.60
2022-11-01T07:50:37.212Z,64.90
2022-11-01T07:55:46.549Z,64.80
2022-11-01T08:00:52.512Z,64.90
2022-11-01T08:05:58.012Z,64.90
2022-11-01T08:11:02.633Z,65.00
2022-11-01T08:16:06.244Z,65.00
2022-11-01T08:21:09.212Z,64.80
2022-11-01T08:26:14.219Z,64.70
2022-11-01T08:31:17.489Z,64.70
2022-11-01T08:36:21.873Z,64.60
2022-11-01T08:41:28.317Z,64.50
2022-11-01T08:46:31.456Z,64.50
2022-11-01T08:51:34.489Z,64.50
2022-11-01T08:56:38.887Z,64.50
2022-11-01T09:01:41.987Z,64.50
2022-11-01T09:06:45.042Z,64.50
2022-11-01T09:11:49.533Z,64.50
2022-11-01T09:16:52.891Z,64.60
2022-11-01T09:21:55.905Z,64.60
2022-11-01T09:27:00.649Z,64.60
2022-11-01T09:32:04.117Z,64.70
2022-11-01T09:37:07.043Z,64.70
2022-11-01T09:42:21.569Z,65.00
2022-11-01T09:47:29.301Z,64.70
2022-11-01T09:52:32.446Z,64.40
2022-11-01T09:57:43.827Z,64.40
2022-11-01T10:03:16.173Z,64.10
2022-11-01T10:08:33.347Z,63.90
2022-11-01T10:13:45.514Z,62.40
2022-11-01T10:18:54.737Z,62.30
2022-11-01T10:24:00.102Z,61.30
2022-11-01T10:29:09.369Z,60.00
2022-11-01T10:34:20.251Z,59.40
2022-11-01T10:39:53.941Z,58.20
2022-11-01T10:45:01.815Z,58.80
2022-11-01T10:50:15.595Z,59.30
2022-11-01T10:55:24.004Z,59.40
2022-11-01T11:00:30.385Z,59.50
2022-11-01T11:05:34.550Z,59.70
2022-11-01T11:10:37.807Z,59.30
2022-11-01T11:15:46.462Z,58.50
2022-11-01T11:20:53.303Z,57.00
2022-11-01T11:26:02.408Z,56.40
2022-11-01T11:31:22.396Z,56.70
2022-11-01T11:36:29.472Z,56.70
2022-11-01T11:41:35.244Z,57.30
2022-11-01T11:46:56.981Z,57.00
2022-11-01T11:52:00.146Z,56.70
2022-11-01T11:57:11.591Z,56.00
2022-11-01T12:02:23.165Z,55.00
2022-11-01T12:07:29.748Z,55.00
2022-11-01T12:12:34.718Z,54.50
2022-11-01T12:17:46.824Z,54.10
2022-11-01T12:22:53.278Z,53.40
2022-11-01T12:28:01.518Z,53.30
2022-11-01T12:33:22.775Z,53.20
2022-11-01T12:38:42.621Z,53.30
2022-11-01T12:43:57.682Z,52.60
2022-11-01T12:49:07.579Z,52.80
2022-11-01T12:54:16.374Z,52.80
2022-11-01T12:59:24.805Z,52.60
2022-11-01T13:04:35.163Z,51.10
2022-11-01T13:09:47.250Z,49.30
2022-11-01T13:15:01.099Z,49.60
2022-11-01T13:20:19.959Z,49.50
2022-11-01T13:25:31.056Z,48.80
2022-11-01T13:30:40.221Z,48.60
2022-11-01T13:35:52.076Z,48.00
2022-11-01T13:41:03.384Z,46.80
2022-11-01T13:46:44.025Z,47.30
2022-11-01T13:51:55.152Z,46.80
2022-11-01T13:57:02.177Z,47.20
2022-11-01T14:02:47.034Z,46.60
2022-11-01T14:08:31.973Z,46.80
2022-11-01T14:13:39.214Z,46.80
2022-11-01T14:19:14.810Z,46.60
2022-11-01T14:24:35.293Z,46.70
2022-11-01T14:29:41.259Z,46.00
2022-11-01T14:34:45.783Z,46.70
2022-11-01T14:39:59.317Z,47.10
2022-11-01T14:45:25.668Z,46.60
2022-11-01T14:50:33.443Z,46.40
2022-11-01T14:55:38.557Z,46.30
2022-11-01T15:00:43.487Z,46.90
2022-11-01T15:05:49.031Z,46.90
2022-11-01T15:10:53.323Z,46.80
2022-11-01T15:16:08.540Z,47.00
2022-11-01T15:26:25.517Z,46.50
2022-11-01T15:31:31.029Z,47.20
2022-11-01T15:36:37.084Z,47.20
2022-11-01T15:41:40.080Z,47.60
2022-11-01T15:46:44.850Z,47.70
2022-11-01T15:51:51.919Z,47.50
2022-11-01T15:56:57.912Z,47.50
2022-11-01T16:02:06.957Z,47.40
2022-11-01T16:07:14.574Z,47.20
2022-11-01T16:12:21.099Z,47.50
2022-11-01T16:17:34.866Z,47.80
2022-11-01T16:22:46.868Z,47.30
2022-11-01T16:28:05.475Z,47.70
2022-11-01T16:33:18.357Z,47.50
2022-11-01T16:38:29.843Z,47.60
2022-11-01T16:43:34.057Z,47.90
2022-11-01T16:48:50.752Z,48.10
2022-11-01T16:53:54.141Z,47.90
2022-11-01T16:59:00.348Z,48.40
2022-11-01T17:04:05.912Z,48.30
2022-11-01T17:09:13.342Z,48.40
2022-11-01T17:14:16.323Z,48.50
2022-11-01T17:19:24.973Z,48.60
2022-11-01T17:24:28.408Z,48.60
2022-11-01T17:29:31.517Z,48.80
2022-11-01T17:34:36.050Z,49.00
2022-11-01T17:39:39.070Z,49.10
2022-11-01T17:44:42.129Z,49.10
2022-11-01T17:49:46.609Z,49.10
2022-11-01T17:54:49.598Z,49.10
2022-11-01T17:59:52.580Z,49.20
2022-11-01T18:04:58.225Z,49.20
2022-11-01T18:10:01.387Z,49.10
2022-11-01T18:15:09.097Z,49.10
2022-11-01T18:20:27.923Z,49.00
2022-11-01T18:25:36.329Z,49.00
2022-11-01T18:30:39.250Z,49.20
2022-11-01T18:35:52.464Z,49.40
2022-11-01T18:40:59.211Z,49.30
2022-11-01T18:46:24.035Z,49.50
2022-11-01T18:51:31.100Z,49.70
2022-11-01T18:56:34.045Z,49.70
2022-11-01T19:01:40.073Z,49.80
2022-11-01T19:06:44.896Z,49.90
2022-11-01T19:11:47.893Z,50.00
2022-11-01T19:16:51.130Z,50.00
2022-11-01T19:22:02.290Z,50.10
2022-11-01T19:27:14.746Z,50.20
2022-11-01T19:32:23.590Z,50.10
2022-11-01T19:37:33.278Z,50.10
2022-11-01T19:42:40.549Z,50.20
2022-11-01T19:47:47.097Z,50.30
2022-11-01T19:52:53.354Z,50.20
2022-11-01T19:57:56.451Z,50.20
2022-11-01T20:03:01.149Z,50.20
2022-11-01T20:08:21.193Z,50.30
2022-11-01T20:13:24.154Z,50.40
2022-11-01T20:18:27.602Z,50.40
2022-11-01T20:23:32.653Z,50.50
2022-11-01T20:28:35.659Z,50.60
2022-11-01T20:33:38.697Z,50.60
2022-11-01T20:38:43.116Z,50.60
2022-11-01T20:43:46.208Z,50.70
2022-11-01T20:48:49.282Z,50.70
2022-11-01T20:53:53.572Z,50.80
2022-11-01T20:58:57.233Z,50.90
2022-11-01T21:04:00.272Z,51.00
2022-11-01T21:09:12.943Z,50.90
2022-11-01T21:14:19.695Z,51.10
2022-11-01T21:19:24.437Z,50.90
2022-11-01T21:24:31.753Z,50.90
2022-11-01T21:29:35.523Z,51.00
2022-11-01T21:34:38.515Z,51.00
2022-11-01T21:39:43.021Z,51.10
2022-11-01T21:44:46.827Z,51.30
2022-11-01T21:49:50.565Z,51.20
2022-11-01T21:54:54.851Z,51.30
2022-11-01T21:59:57.835Z,51.30
2022-11-01T22:05:00.850Z,51.40
2022-11-01T22:10:05.926Z,51.50
2022-11-01T22:15:09.748Z,51.60
2022-11-01T22:20:13.183Z,51.80
2022-11-01T22:25:17.784Z,51.80
2022-11-01T22:30:20.854Z,52.00
2022-11-01T22:35:24.193Z,51.80
2022-11-01T22:40:28.577Z,52.00
2022-11-01T22:45:31.667Z,52.00
2022-11-01T22:50:34.616Z,51.90
2022-11-01T22:55:41.104Z,51.90
2022-11-01T23:00:47.411Z,51.90
2022-11-01T23:05:54.077Z,52.00
2022-11-01T23:10:58.703Z,52.00
2022-11-01T23:16:04.078Z,52.00
2022-11-01T23:21:09.185Z,52.00
2022-11-01T23:26:14.702Z,52.00
2022-11-01T23:31:18.399Z,52.10
2022-11-01T23:36:25.859Z,52.20
2022-11-01T23:41:34.988Z,52.20
2022-11-01T23:46:38.263Z,52.30
2022-11-01T23:51:41.293Z,52.30
2022-11-01T23:56:45.711Z,52.30
